Aérodrome :
LOGIN :

S'inscrire | Disclaimer

   EN    FR    IT 

 










Légende :    VFR   VFR Marginal   IFR   IFR Intensif   IFR Très Intensif
Visi : 
Plafond : 
>= 8 km
>= 3000ft
5 à 8 km
1000 à 3000 ft
1500m à 5 km
500 à 1000 ft
800 à 1500m
200 à 500 ft
< 800m
< 200 ft
Symboles :   Orages  Brouillard  Fortes neiges  Fortes précipitations  Vent > 20 kt
SIGMETs :   Divers  Orages  Givrage  Turbulence  Onde Orograph.  Cendres Volcan.






- Altitude de l'aérodrome : 735 ft
- Code IATA : EGO


UUOB - Belgorod

DERNIER METAR :
  • 191630Z 30002MPS 1100 0900E R29/P2000N FZFG VV003 M04/M04 Q1031 R29/190057 NOSIG RMK QBB110

METARs EXPIRÉS :
  • 191600Z 30002MPS 3400 BR OVC003 M04/M05 Q1031 R29/190057 NOSIG RMK QBB110
  • 191530Z 27002MPS 2300 BR OVC004 M04/M05 Q1031 R29/190057 NOSIG RMK QBB120
  • 191500Z 32002MPS 1600 BR OVC004 M04/M05 Q1031 R29/190057 NOSIG RMK QBB120
  • 191430Z 00000MPS 1400 1300W BR OVC003 M04/M04 Q1031 R29/190057 NOSIG RMK QBB110
  • 191400Z 30001MPS 1500 0750SW FZFG OVC004 M04/M05 Q1030 R29/190057 NOSIG RMK QBB120

TAF TAF UUOB
Valide du 19 à 15h jusqu'au 20 à 00h UTC


191400Z 1915/1924 30003MPS 1500 BR OVC004
TEMPO 1915/1918 0500 FZFG OVC002
BECMG 1918/1920 0500 FZFG VV002



MET'MAP, la Météo Aéronautique d'un coup d'oeil ! - Copyright ORBIFLY Décembre 2007 - Disclaimer

ORBIFLY MET'MAP TEAM :

Programmation & Développement : Alexandra Zaïnal
Sur une idée originale de : Baudouin d'Aumeries
Assistance à la programmation : Marc-Olivier Méhu
Soutien technique & logistique : Manuel Goepfert

Contact : metmap@orbifly.com




SOURCES & CREDITS :

   NOAA